sensor_id;sensor_type;location;lat;lon;timestamp;pressure;altitude;pressure_sealevel;temperature;humidity
36834;BME280;48003;52.084;5.224;2023-03-25T00:00:10;100150.0;;;11.45;73.66
36834;BME280;48003;52.084;5.224;2023-03-25T00:01:46;100158.0;;;11.36;74.16
36834;BME280;48003;52.084;5.224;2023-03-25T00:05:00;100164.0;;;11.21;74.73
36834;BME280;48003;52.084;5.224;2023-03-25T00:06:36;100153.0;;;11.49;73.17
36834;BME280;48003;52.084;5.224;2023-03-25T00:08:12;100155.0;;;11.77;72.27
36834;BME280;48003;52.084;5.224;2023-03-25T00:11:24;100203.0;;;11.52;73.16
36834;BME280;48003;52.084;5.224;2023-03-25T00:13:00;100155.0;;;11.68;73.22
36834;BME280;48003;52.084;5.224;2023-03-25T00:14:36;100160.0;;;11.43;73.55
36834;BME280;48003;52.084;5.224;2023-03-25T00:17:50;100157.0;;;11.29;74.78
36834;BME280;48003;52.084;5.224;2023-03-25T00:19:27;100180.0;;;11.42;74.17
36834;BME280;48003;52.084;5.224;2023-03-25T00:21:05;100156.0;;;11.44;73.5
36834;BME280;48003;52.084;5.224;2023-03-25T00:22:41;100160.0;;;11.32;73.86
36834;BME280;48003;52.084;5.224;2023-03-25T00:25:54;100163.0;;;11.44;73.53
36834;BME280;48003;52.084;5.224;2023-03-25T00:27:30;100152.0;;;11.32;74.19
36834;BME280;48003;52.084;5.224;2023-03-25T00:29:06;100144.0;;;11.36;73.58
36834;BME280;48003;52.084;5.224;2023-03-25T00:32:19;100147.0;;;11.31;74.33
36834;BME280;48003;52.084;5.224;2023-03-25T00:33:55;100162.0;;;11.11;75.05
36834;BME280;48003;52.084;5.224;2023-03-25T00:35:31;100143.0;;;11.34;74.64
36834;BME280;48003;52.084;5.224;2023-03-25T00:38:47;100162.0;;;11.22;74.44
36834;BME280;48003;52.084;5.224;2023-03-25T00:40:25;100146.0;;;11.31;74.47
36834;BME280;48003;52.084;5.224;2023-03-25T00:42:01;100146.0;;;11.29;74.17
36834;BME280;48003;52.084;5.224;2023-03-25T00:43:37;100150.0;;;11.27;73.59
36834;BME280;48003;52.084;5.224;2023-03-25T00:46:49;100146.0;;;11.53;73.03
36834;BME280;48003;52.084;5.224;2023-03-25T00:48:25;100149.0;;;11.62;72.36
36834;BME280;48003;52.084;5.224;2023-03-25T00:50:02;100162.0;;;11.57;72.45
36834;BME280;48003;52.084;5.224;2023-03-25T00:53:15;100156.0;;;11.36;73.87
36834;BME280;48003;52.084;5.224;2023-03-25T00:54:51;100155.0;;;11.71;71.62
36834;BME280;48003;52.084;5.224;2023-03-25T00:56:28;100152.0;;;11.41;72.83
36834;BME280;48003;52.084;5.224;2023-03-25T00:59:40;100164.0;;;11.38;72.91
36834;BME280;48003;52.084;5.224;2023-03-25T01:01:19;100150.0;;;11.52;72.36
36834;BME280;48003;52.084;5.224;2023-03-25T01:02:56;100153.0;;;11.57;71.63
36834;BME280;48003;52.084;5.224;2023-03-25T01:04:32;100160.0;;;11.37;72.41
36834;BME280;48003;52.084;5.224;2023-03-25T01:07:46;100158.0;;;11.35;72.27
36834;BME280;48003;52.084;5.224;2023-03-25T01:09:22;100160.0;;;11.23;73.16
36834;BME280;48003;52.084;5.224;2023-03-25T01:10:58;100148.0;;;11.46;72.31
36834;BME280;48003;52.084;5.224;2023-03-25T01:14:13;100156.0;;;11.65;71.3
36834;BME280;48003;52.084;5.224;2023-03-25T01:15:50;100151.0;;;11.37;72.33
36834;BME280;48003;52.084;5.224;2023-03-25T01:17:26;100151.0;;;11.55;72.11
36834;BME280;48003;52.084;5.224;2023-03-25T01:19:02;100165.0;;;11.3;72.75
36834;BME280;48003;52.084;5.224;2023-03-25T01:22:15;100150.0;;;11.42;72.67
36834;BME280;48003;52.084;5.224;2023-03-25T01:23:51;100143.0;;;11.59;72.45
36834;BME280;48003;52.084;5.224;2023-03-25T01:25:27;100148.0;;;11.51;72.62
36834;BME280;48003;52.084;5.224;2023-03-25T01:28:40;100149.0;;;11.47;72.94
36834;BME280;48003;52.084;5.224;2023-03-25T01:30:17;100138.0;;;11.39;73.3
36834;BME280;48003;52.084;5.224;2023-03-25T01:31:53;100153.0;;;11.46;72.92
36834;BME280;48003;52.084;5.224;2023-03-25T01:35:07;100134.0;;;11.69;71.88
36834;BME280;48003;52.084;5.224;2023-03-25T01:36:43;100137.0;;;11.44;73.3
36834;BME280;48003;52.084;5.224;2023-03-25T01:38:19;100150.0;;;11.41;73.47
36834;BME280;48003;52.084;5.224;2023-03-25T01:41:33;100167.0;;;11.38;73.86
36834;BME280;48003;52.084;5.224;2023-03-25T01:43:11;100136.0;;;11.0;75.36
36834;BME280;48003;52.084;5.224;2023-03-25T01:45:51;100144.0;;;11.12;75.3
36834;BME280;48003;52.084;5.224;2023-03-25T01:47:27;100140.0;;;11.13;75.64
36834;BME280;48003;52.084;5.224;2023-03-25T01:49:07;100150.0;;;11.17;76.87
36834;BME280;48003;52.084;5.224;2023-03-25T01:50:48;100144.0;;;11.07;78.8
36834;BME280;48003;52.084;5.224;2023-03-25T01:52:32;100134.0;;;10.9;79.45
36834;BME280;48003;52.084;5.224;2023-03-25T01:55:44;100132.0;;;11.19;79.47
36834;BME280;48003;52.084;5.224;2023-03-25T01:57:22;100139.0;;;11.14;78.39
36834;BME280;48003;52.084;5.224;2023-03-25T01:59:01;100137.0;;;10.8;79.55
36834;BME280;48003;52.084;5.224;2023-03-25T02:02:19;100141.0;;;10.82;79.77
36834;BME280;48003;52.084;5.224;2023-03-25T02:03:58;100149.0;;;10.73;80.12
36834;BME280;48003;52.084;5.224;2023-03-25T02:05:40;100144.0;;;10.81;79.83
36834;BME280;48003;52.084;5.224;2023-03-25T02:07:18;100145.0;;;10.8;80.08
36834;BME280;48003;52.084;5.224;2023-03-25T02:10:34;100139.0;;;10.56;81.12
36834;BME280;48003;52.084;5.224;2023-03-25T02:12:10;100153.0;;;10.64;81.34
36834;BME280;48003;52.084;5.224;2023-03-25T02:13:46;100130.0;;;10.73;81.08
36834;BME280;48003;52.084;5.224;2023-03-25T02:17:02;100142.0;;;10.58;81.95
36834;BME280;48003;52.084;5.224;2023-03-25T02:18:54;100143.0;;;10.64;82.39
36834;BME280;48003;52.084;5.224;2023-03-25T02:21:52;100134.0;;;10.89;82.25
36834;BME280;48003;52.084;5.224;2023-03-25T02:24:20;100145.0;;;10.46;84.26
36834;BME280;48003;52.084;5.224;2023-03-25T02:27:48;100127.0;;;10.73;83.83
36834;BME280;48003;52.084;5.224;2023-03-25T02:29:48;100130.0;;;10.84;82.73
36834;BME280;48003;52.084;5.224;2023-03-25T02:33:32;100128.0;;;10.74;83.13
36834;BME280;48003;52.084;5.224;2023-03-25T02:36:05;100134.0;;;10.81;82.62
36834;BME280;48003;52.084;5.224;2023-03-25T02:38:01;100130.0;;;11.08;81.16
36834;BME280;48003;52.084;5.224;2023-03-25T02:39:55;100137.0;;;11.01;80.75
36834;BME280;48003;52.084;5.224;2023-03-25T02:41:40;100132.0;;;10.73;81.48
36834;BME280;48003;52.084;5.224;2023-03-25T02:43:22;100130.0;;;10.82;81.25
36834;BME280;48003;52.084;5.224;2023-03-25T02:45:05;100124.0;;;11.03;80.27
36834;BME280;48003;52.084;5.224;2023-03-25T02:48:40;100136.0;;;10.75;81.52
36834;BME280;48003;52.084;5.224;2023-03-25T02:50:22;100132.0;;;10.96;80.67
36834;BME280;48003;52.084;5.224;2023-03-25T02:52:04;100123.0;;;10.97;80.37
36834;BME280;48003;52.084;5.224;2023-03-25T02:53:45;100135.0;;;10.72;81.66
36834;BME280;48003;52.084;5.224;2023-03-25T02:55:24;100127.0;;;10.73;81.13
36834;BME280;48003;52.084;5.224;2023-03-25T02:58:43;100121.0;;;10.83;81.66
36834;BME280;48003;52.084;5.224;2023-03-25T03:00:24;100122.0;;;10.66;81.81
36834;BME280;48003;52.084;5.224;2023-03-25T03:02:05;100106.0;;;11.08;80.36
36834;BME280;48003;52.084;5.224;2023-03-25T03:03:42;100128.0;;;10.73;81.62
36834;BME280;48003;52.084;5.224;2023-03-25T03:06:58;100109.0;;;10.83;81.31
36834;BME280;48003;52.084;5.224;2023-03-25T03:08:54;100109.0;;;11.02;80.64
36834;BME280;48003;52.084;5.224;2023-03-25T03:11:24;100114.0;;;11.04;80.06
36834;BME280;48003;52.084;5.224;2023-03-25T03:13:11;100105.0;;;11.0;80.16
36834;BME280;48003;52.084;5.224;2023-03-25T03:15:00;100103.0;;;11.06;80.36
36834;BME280;48003;52.084;5.224;2023-03-25T03:16:46;100118.0;;;10.9;80.69
36834;BME280;48003;52.084;5.224;2023-03-25T03:18:36;100083.0;;;10.89;81.3
36834;BME280;48003;52.084;5.224;2023-03-25T03:22:17;100105.0;;;10.95;81.12
36834;BME280;48003;52.084;5.224;2023-03-25T03:24:02;100107.0;;;10.99;80.8
36834;BME280;48003;52.084;5.224;2023-03-25T03:25:46;100097.0;;;10.88;81.62
36834;BME280;48003;52.084;5.224;2023-03-25T03:27:29;100100.0;;;10.79;81.62
36834;BME280;48003;52.084;5.224;2023-03-25T03:29:11;100097.0;;;11.11;80.42
36834;BME280;48003;52.084;5.224;2023-03-25T03:30:56;100108.0;;;10.77;81.25
36834;BME280;48003;52.084;5.224;2023-03-25T03:34:21;100095.0;;;11.05;80.53
36834;BME280;48003;52.084;5.224;2023-03-25T03:36:04;100108.0;;;10.8;80.62
36834;BME280;48003;52.084;5.224;2023-03-25T03:37:46;100089.0;;;10.91;80.7
36834;BME280;48003;52.084;5.224;2023-03-25T03:39:27;100090.0;;;11.02;80.44
36834;BME280;48003;52.084;5.224;2023-03-25T03:42:51;100088.0;;;10.94;80.39
36834;BME280;48003;52.084;5.224;2023-03-25T03:44:32;100093.0;;;10.96;80.37
36834;BME280;48003;52.084;5.224;2023-03-25T03:46:15;100102.0;;;10.82;82.63
36834;BME280;48003;52.084;5.224;2023-03-25T03:47:55;100110.0;;;10.84;83.0
36834;BME280;48003;52.084;5.224;2023-03-25T03:51:18;100089.0;;;10.84;84.18
36834;BME280;48003;52.084;5.224;2023-03-25T03:53:02;100090.0;;;10.64;85.54
36834;BME280;48003;52.084;5.224;2023-03-25T03:54:45;100095.0;;;10.4;86.47
36834;BME280;48003;52.084;5.224;2023-03-25T03:56:25;100086.0;;;10.6;85.82
36834;BME280;48003;52.084;5.224;2023-03-25T03:58:08;100090.0;;;10.58;85.84
36834;BME280;48003;52.084;5.224;2023-03-25T04:01:33;100088.0;;;10.38;87.07
36834;BME280;48003;52.084;5.224;2023-03-25T04:03:18;100073.0;;;10.27;87.73
36834;BME280;48003;52.084;5.224;2023-03-25T04:04:55;100069.0;;;10.49;87.18
36834;BME280;48003;52.084;5.224;2023-03-25T04:06:34;100112.0;;;10.55;86.74
36834;BME280;48003;52.084;5.224;2023-03-25T04:10:06;100080.0;;;10.59;85.92
36834;BME280;48003;52.084;5.224;2023-03-25T04:11:49;100070.0;;;10.71;86.21
36834;BME280;48003;52.084;5.224;2023-03-25T04:13:35;100084.0;;;10.41;87.88
36834;BME280;48003;52.084;5.224;2023-03-25T04:15:17;100077.0;;;10.47;87.5
36834;BME280;48003;52.084;5.224;2023-03-25T04:16:54;100088.0;;;10.39;88.15
36834;BME280;48003;52.084;5.224;2023-03-25T04:20:08;100096.0;;;10.16;89.2
36834;BME280;48003;52.084;5.224;2023-03-25T04:21:46;100091.0;;;10.22;90.06
36834;BME280;48003;52.084;5.224;2023-03-25T04:23:22;100085.0;;;9.99;90.65
36834;BME280;48003;52.084;5.224;2023-03-25T04:26:35;100103.0;;;10.09;90.25
36834;BME280;48003;52.084;5.224;2023-03-25T04:28:11;100084.0;;;10.18;89.83
36834;BME280;48003;52.084;5.224;2023-03-25T04:29:47;100094.0;;;10.23;90.37
36834;BME280;48003;52.084;5.224;2023-03-25T04:33:00;100080.0;;;10.42;89.98
36834;BME280;48003;52.084;5.224;2023-03-25T04:34:37;100083.0;;;10.27;89.71
36834;BME280;48003;52.084;5.224;2023-03-25T04:36:13;100087.0;;;10.29;90.04
36834;BME280;48003;52.084;5.224;2023-03-25T04:37:50;100109.0;;;9.98;91.23
36834;BME280;48003;52.084;5.224;2023-03-25T04:41:02;100097.0;;;10.29;89.23
36834;BME280;48003;52.084;5.224;2023-03-25T04:42:38;100096.0;;;10.26;89.33
36834;BME280;48003;52.084;5.224;2023-03-25T04:44:14;100114.0;;;10.29;88.85
36834;BME280;48003;52.084;5.224;2023-03-25T04:47:27;100103.0;;;10.3;89.67
36834;BME280;48003;52.084;5.224;2023-03-25T04:49:03;100109.0;;;10.43;88.77
36834;BME280;48003;52.084;5.224;2023-03-25T04:50:40;100105.0;;;10.17;89.3
36834;BME280;48003;52.084;5.224;2023-03-25T04:53:52;100107.0;;;10.09;89.78
36834;BME280;48003;52.084;5.224;2023-03-25T04:55:28;100102.0;;;10.35;88.75
36834;BME280;48003;52.084;5.224;2023-03-25T04:57:05;100096.0;;;10.32;88.59
36834;BME280;48003;52.084;5.224;2023-03-25T04:58:42;100106.0;;;10.23;88.15
36834;BME280;48003;52.084;5.224;2023-03-25T05:01:56;100107.0;;;10.31;88.3
36834;BME280;48003;52.084;5.224;2023-03-25T05:03:32;100113.0;;;10.4;87.76
36834;BME280;48003;52.084;5.224;2023-03-25T05:05:09;100119.0;;;10.46;87.87
36834;BME280;48003;52.084;5.224;2023-03-25T05:08:24;100123.0;;;10.56;86.81
36834;BME280;48003;52.084;5.224;2023-03-25T05:10:00;100111.0;;;10.23;88.38
36834;BME280;48003;52.084;5.224;2023-03-25T05:11:37;100108.0;;;10.5;87.54
36834;BME280;48003;52.084;5.224;2023-03-25T05:14:52;100107.0;;;10.38;87.62
36834;BME280;48003;52.084;5.224;2023-03-25T05:16:28;100105.0;;;10.29;87.91
36834;BME280;48003;52.084;5.224;2023-03-25T05:18:06;100107.0;;;10.36;88.32
36834;BME280;48003;52.084;5.224;2023-03-25T05:19:42;100110.0;;;10.15;88.31
36834;BME280;48003;52.084;5.224;2023-03-25T05:22:55;100109.0;;;10.45;86.85
36834;BME280;48003;52.084;5.224;2023-03-25T05:24:31;100110.0;;;10.31;86.54
36834;BME280;48003;52.084;5.224;2023-03-25T05:26:07;100136.0;;;10.25;86.54
36834;BME280;48003;52.084;5.224;2023-03-25T05:29:20;100125.0;;;10.3;86.51
36834;BME280;48003;52.084;5.224;2023-03-25T05:30:56;100137.0;;;10.06;86.89
36834;BME280;48003;52.084;5.224;2023-03-25T05:32:32;100118.0;;;10.17;86.31
36834;BME280;48003;52.084;5.224;2023-03-25T05:35:45;100117.0;;;10.26;86.25
36834;BME280;48003;52.084;5.224;2023-03-25T05:37:22;100114.0;;;10.55;85.22
36834;BME280;48003;52.084;5.224;2023-03-25T05:38:58;100131.0;;;10.53;84.38
36834;BME280;48003;52.084;5.224;2023-03-25T05:40:34;100134.0;;;10.33;84.55
36834;BME280;48003;52.084;5.224;2023-03-25T05:43:46;100125.0;;;10.47;84.73
36834;BME280;48003;52.084;5.224;2023-03-25T05:45:22;100123.0;;;10.54;83.92
36834;BME280;48003;52.084;5.224;2023-03-25T05:46:58;100141.0;;;10.23;85.55
36834;BME280;48003;52.084;5.224;2023-03-25T05:50:11;100142.0;;;10.51;83.99
36834;BME280;48003;52.084;5.224;2023-03-25T05:51:48;100130.0;;;10.48;84.42
36834;BME280;48003;52.084;5.224;2023-03-25T05:53:24;100146.0;;;10.54;83.85
36834;BME280;48003;52.084;5.224;2023-03-25T05:56:36;100135.0;;;10.4;83.4
36834;BME280;48003;52.084;5.224;2023-03-25T05:58:12;100139.0;;;10.4;83.02
36834;BME280;48003;52.084;5.224;2023-03-25T05:59:49;100143.0;;;10.52;81.99
36834;BME280;48003;52.084;5.224;2023-03-25T06:03:01;100146.0;;;10.62;81.58
36834;BME280;48003;52.084;5.224;2023-03-25T06:04:37;100140.0;;;10.46;81.83
36834;BME280;48003;52.084;5.224;2023-03-25T06:06:14;100138.0;;;10.66;81.47
36834;BME280;48003;52.084;5.224;2023-03-25T06:07:51;100155.0;;;10.72;80.94
36834;BME280;48003;52.084;5.224;2023-03-25T06:11:04;100152.0;;;10.47;81.99
36834;BME280;48003;52.084;5.224;2023-03-25T06:12:40;100157.0;;;10.36;82.63
36834;BME280;48003;52.084;5.224;2023-03-25T06:14:16;100147.0;;;10.3;83.35
36834;BME280;48003;52.084;5.224;2023-03-25T06:17:28;100156.0;;;10.42;82.97
36834;BME280;48003;52.084;5.224;2023-03-25T06:19:04;100140.0;;;10.53;82.71
36834;BME280;48003;52.084;5.224;2023-03-25T06:20:41;100145.0;;;10.4;82.47
36834;BME280;48003;52.084;5.224;2023-03-25T06:23:56;100153.0;;;10.42;83.34
36834;BME280;48003;52.084;5.224;2023-03-25T06:25:32;100152.0;;;10.67;81.97
36834;BME280;48003;52.084;5.224;2023-03-25T06:27:13;100140.0;;;10.66;82.41
36834;BME280;48003;52.084;5.224;2023-03-25T06:28:49;100132.0;;;10.49;84.26
36834;BME280;48003;52.084;5.224;2023-03-25T06:32:02;100142.0;;;10.69;83.4
36834;BME280;48003;52.084;5.224;2023-03-25T06:33:38;100135.0;;;10.66;83.41
36834;BME280;48003;52.084;5.224;2023-03-25T06:35:16;100148.0;;;10.55;84.18
36834;BME280;48003;52.084;5.224;2023-03-25T06:38:28;100169.0;;;10.74;84.0
36834;BME280;48003;52.084;5.224;2023-03-25T06:40:05;100164.0;;;10.36;86.06
36834;BME280;48003;52.084;5.224;2023-03-25T06:41:43;100158.0;;;10.48;87.28
36834;BME280;48003;52.084;5.224;2023-03-25T06:43:19;100155.0;;;10.32;87.71
36834;BME280;48003;52.084;5.224;2023-03-25T06:46:32;100169.0;;;10.13;88.38
36834;BME280;48003;52.084;5.224;2023-03-25T06:48:08;100168.0;;;10.05;89.26
36834;BME280;48003;52.084;5.224;2023-03-25T06:49:44;100167.0;;;10.24;89.52
36834;BME280;48003;52.084;5.224;2023-03-25T06:52:56;100173.0;;;10.32;88.49
36834;BME280;48003;52.084;5.224;2023-03-25T06:54:34;100173.0;;;10.14;89.15
36834;BME280;48003;52.084;5.224;2023-03-25T06:56:10;100176.0;;;10.1;88.75
36834;BME280;48003;52.084;5.224;2023-03-25T06:59:22;100177.0;;;10.14;88.9
36834;BME280;48003;52.084;5.224;2023-03-25T07:00:58;100185.0;;;10.06;89.16
36834;BME280;48003;52.084;5.224;2023-03-25T07:02:34;100176.0;;;10.24;89.66
36834;BME280;48003;52.084;5.224;2023-03-25T07:05:47;100175.0;;;10.11;89.41
36834;BME280;48003;52.084;5.224;2023-03-25T07:07:24;100181.0;;;10.33;89.16
36834;BME280;48003;52.084;5.224;2023-03-25T07:09:01;100182.0;;;10.11;89.93
36834;BME280;48003;52.084;5.224;2023-03-25T07:10:37;100188.0;;;10.15;90.12
36834;BME280;48003;52.084;5.224;2023-03-25T07:13:49;100177.0;;;9.92;90.86
36834;BME280;48003;52.084;5.224;2023-03-25T07:15:26;100173.0;;;10.17;90.17
36834;BME280;48003;52.084;5.224;2023-03-25T07:17:01;100174.0;;;9.89;90.61
36834;BME280;48003;52.084;5.224;2023-03-25T07:20:14;100174.0;;;9.97;90.48
36834;BME280;48003;52.084;5.224;2023-03-25T07:21:51;100176.0;;;10.13;90.52
36834;BME280;48003;52.084;5.224;2023-03-25T07:23:27;100183.0;;;10.08;90.13
36834;BME280;48003;52.084;5.224;2023-03-25T07:26:40;100182.0;;;10.18;90.59
36834;BME280;48003;52.084;5.224;2023-03-25T07:28:17;100188.0;;;9.98;90.63
36834;BME280;48003;52.084;5.224;2023-03-25T07:29:54;100169.0;;;10.0;91.13
36834;BME280;48003;52.084;5.224;2023-03-25T07:31:30;100185.0;;;10.0;90.78
36834;BME280;48003;52.084;5.224;2023-03-25T07:34:43;100180.0;;;10.06;91.27
36834;BME280;48003;52.084;5.224;2023-03-25T07:36:19;100183.0;;;9.89;92.27
36834;BME280;48003;52.084;5.224;2023-03-25T07:37:55;100192.0;;;10.15;91.32
36834;BME280;48003;52.084;5.224;2023-03-25T07:41:10;100190.0;;;10.05;91.46
36834;BME280;48003;52.084;5.224;2023-03-25T07:42:47;100191.0;;;10.07;91.35
36834;BME280;48003;52.084;5.224;2023-03-25T07:44:23;100181.0;;;10.22;90.02
36834;BME280;48003;52.084;5.224;2023-03-25T07:47:36;100186.0;;;10.06;90.22
36834;BME280;48003;52.084;5.224;2023-03-25T07:49:13;100189.0;;;10.06;90.53
36834;BME280;48003;52.084;5.224;2023-03-25T07:50:51;100185.0;;;10.15;89.89
36834;BME280;48003;52.084;5.224;2023-03-25T07:52:28;100183.0;;;10.14;90.5
36834;BME280;48003;52.084;5.224;2023-03-25T07:55:40;100186.0;;;10.19;89.49
36834;BME280;48003;52.084;5.224;2023-03-25T07:57:16;100186.0;;;10.09;90.05
36834;BME280;48003;52.084;5.224;2023-03-25T07:58:52;100187.0;;;10.31;88.82
36834;BME280;48003;52.084;5.224;2023-03-25T08:02:05;100187.0;;;10.47;87.67
36834;BME280;48003;52.084;5.224;2023-03-25T08:03:42;100195.0;;;10.48;88.21
36834;BME280;48003;52.084;5.224;2023-03-25T08:05:18;100192.0;;;10.46;87.23
36834;BME280;48003;52.084;5.224;2023-03-25T08:08:30;100193.0;;;10.52;87.79
36834;BME280;48003;52.084;5.224;2023-03-25T08:10:07;100195.0;;;10.57;87.23
36834;BME280;48003;52.084;5.224;2023-03-25T08:11:43;100199.0;;;10.73;86.26
36834;BME280;48003;52.084;5.224;2023-03-25T08:13:19;100191.0;;;10.6;85.09
36834;BME280;48003;52.084;5.224;2023-03-25T08:16:32;100195.0;;;10.5;85.56
36834;BME280;48003;52.084;5.224;2023-03-25T08:18:08;100217.0;;;10.74;84.75
36834;BME280;48003;52.084;5.224;2023-03-25T08:19:44;100195.0;;;10.72;84.25
36834;BME280;48003;52.084;5.224;2023-03-25T08:22:56;100214.0;;;10.75;84.16
36834;BME280;48003;52.084;5.224;2023-03-25T08:24:32;100208.0;;;10.58;83.84
36834;BME280;48003;52.084;5.224;2023-03-25T08:26:09;100205.0;;;10.78;82.87
36834;BME280;48003;52.084;5.224;2023-03-25T08:29:21;100215.0;;;10.84;83.67
36834;BME280;48003;52.084;5.224;2023-03-25T08:30:57;100213.0;;;10.9;84.01
36834;BME280;48003;52.084;5.224;2023-03-25T08:32:35;100210.0;;;10.81;84.43
36834;BME280;48003;52.084;5.224;2023-03-25T08:34:12;100202.0;;;10.88;84.41
36834;BME280;48003;52.084;5.224;2023-03-25T08:37:24;100207.0;;;10.81;84.63
36834;BME280;48003;52.084;5.224;2023-03-25T08:39:01;100211.0;;;10.87;84.86
36834;BME280;48003;52.084;5.224;2023-03-25T08:40:37;100210.0;;;10.77;85.01
36834;BME280;48003;52.084;5.224;2023-03-25T08:43:53;100205.0;;;10.91;84.18
36834;BME280;48003;52.084;5.224;2023-03-25T08:45:29;100205.0;;;11.15;84.97
36834;BME280;48003;52.084;5.224;2023-03-25T08:47:07;100216.0;;;11.12;83.66
36834;BME280;48003;52.084;5.224;2023-03-25T08:50:20;100209.0;;;11.15;84.62
36834;BME280;48003;52.084;5.224;2023-03-25T08:51:56;100210.0;;;11.16;85.06
36834;BME280;48003;52.084;5.224;2023-03-25T08:53:33;100205.0;;;11.56;82.79
36834;BME280;48003;52.084;5.224;2023-03-25T08:55:09;100219.0;;;11.36;83.43
36834;BME280;48003;52.084;5.224;2023-03-25T08:58:23;100210.0;;;11.36;83.6
36834;BME280;48003;52.084;5.224;2023-03-25T08:59:59;100221.0;;;11.5;82.42
36834;BME280;48003;52.084;5.224;2023-03-25T09:01:36;100225.0;;;11.41;82.26
36834;BME280;48003;52.084;5.224;2023-03-25T09:04:48;100225.0;;;11.4;82.25
36834;BME280;48003;52.084;5.224;2023-03-25T09:06:24;100223.0;;;11.46;81.19
36834;BME280;48003;52.084;5.224;2023-03-25T09:08:00;100210.0;;;11.25;82.25
36834;BME280;48003;52.084;5.224;2023-03-25T09:11:12;100224.0;;;11.3;82.6
36834;BME280;48003;52.084;5.224;2023-03-25T09:12:48;100224.0;;;11.51;81.25
36834;BME280;48003;52.084;5.224;2023-03-25T09:14:25;100216.0;;;11.27;81.61
36834;BME280;48003;52.084;5.224;2023-03-25T09:16:01;100215.0;;;11.26;82.24
36834;BME280;48003;52.084;5.224;2023-03-25T09:19:14;100221.0;;;11.23;82.1
36834;BME280;48003;52.084;5.224;2023-03-25T09:20:50;100230.0;;;11.2;84.07
36834;BME280;48003;52.084;5.224;2023-03-25T09:22:27;100223.0;;;11.32;83.44
36834;BME280;48003;52.084;5.224;2023-03-25T09:25:40;100217.0;;;11.49;82.52
36834;BME280;48003;52.084;5.224;2023-03-25T09:27:16;100221.0;;;11.65;82.13
36834;BME280;48003;52.084;5.224;2023-03-25T09:28:52;100232.0;;;11.63;82.08
36834;BME280;48003;52.084;5.224;2023-03-25T09:32:04;100222.0;;;11.58;83.72
36834;BME280;48003;52.084;5.224;2023-03-25T09:33:40;100232.0;;;11.59;82.81
36834;BME280;48003;52.084;5.224;2023-03-25T09:35:17;100221.0;;;11.74;82.53
36834;BME280;48003;52.084;5.224;2023-03-25T09:38:31;100226.0;;;11.85;79.75
36834;BME280;48003;52.084;5.224;2023-03-25T09:40:11;100230.0;;;11.79;80.49
36834;BME280;48003;52.084;5.224;2023-03-25T09:42:00;100218.0;;;11.89;80.67
36834;BME280;48003;52.084;5.224;2023-03-25T09:44:13;100226.0;;;12.0;78.11
36834;BME280;48003;52.084;5.224;2023-03-25T09:45:54;100244.0;;;11.91;78.63
36834;BME280;48003;52.084;5.224;2023-03-25T09:47:32;100221.0;;;12.04;77.84
36834;BME280;48003;52.084;5.224;2023-03-25T09:50:52;100226.0;;;11.89;78.39
36834;BME280;48003;52.084;5.224;2023-03-25T09:52:32;100235.0;;;12.02;76.81
36834;BME280;48003;52.084;5.224;2023-03-25T09:54:19;100227.0;;;11.75;78.55
36834;BME280;48003;52.084;5.224;2023-03-25T09:55:58;100247.0;;;11.59;79.62
36834;BME280;48003;52.084;5.224;2023-03-25T09:59:22;100240.0;;;11.65;79.23
36834;BME280;48003;52.084;5.224;2023-03-25T10:01:11;100248.0;;;11.44;80.19
36834;BME280;48003;52.084;5.224;2023-03-25T10:03:00;100241.0;;;11.43;80.41
36834;BME280;48003;52.084;5.224;2023-03-25T10:04:56;100244.0;;;11.5;80.33
36834;BME280;48003;52.084;5.224;2023-03-25T10:06:42;100260.0;;;11.55;78.98
36834;BME280;48003;52.084;5.224;2023-03-25T10:08:33;100257.0;;;11.67;78.52
36834;BME280;48003;52.084;5.224;2023-03-25T10:12:06;100238.0;;;11.82;78.47
36834;BME280;48003;52.084;5.224;2023-03-25T10:13:53;100243.0;;;11.87;78.69
36834;BME280;48003;52.084;5.224;2023-03-25T10:15:39;100244.0;;;11.9;76.84
36834;BME280;48003;52.084;5.224;2023-03-25T10:17:24;100253.0;;;11.95;75.77
36834;BME280;48003;52.084;5.224;2023-03-25T10:19:21;100247.0;;;12.03;76.41
36834;BME280;48003;52.084;5.224;2023-03-25T10:21:07;100247.0;;;12.16;74.55
36834;BME280;48003;52.084;5.224;2023-03-25T10:24:43;100253.0;;;12.17;75.02
36834;BME280;48003;52.084;5.224;2023-03-25T10:26:24;100256.0;;;12.15;75.44
36834;BME280;48003;52.084;5.224;2023-03-25T10:28:06;100258.0;;;12.4;74.63
36834;BME280;48003;52.084;5.224;2023-03-25T10:29:50;100260.0;;;12.34;74.69
36834;BME280;48003;52.084;5.224;2023-03-25T10:31:32;100257.0;;;12.29;75.73
36834;BME280;48003;52.084;5.224;2023-03-25T10:35:00;100259.0;;;12.18;74.17
36834;BME280;48003;52.084;5.224;2023-03-25T10:36:43;100258.0;;;12.19;74.5
36834;BME280;48003;52.084;5.224;2023-03-25T10:38:22;100260.0;;;12.52;73.14
36834;BME280;48003;52.084;5.224;2023-03-25T10:40:12;100261.0;;;12.24;73.58
36834;BME280;48003;52.084;5.224;2023-03-25T10:41:54;100248.0;;;12.54;71.77
36834;BME280;48003;52.084;5.224;2023-03-25T10:45:14;100271.0;;;12.68;71.92
36834;BME280;48003;52.084;5.224;2023-03-25T10:46:54;100253.0;;;12.34;72.37
36834;BME280;48003;52.084;5.224;2023-03-25T10:48:33;100268.0;;;12.32;72.02
36834;BME280;48003;52.084;5.224;2023-03-25T10:50:13;100263.0;;;12.15;75.05
36834;BME280;48003;52.084;5.224;2023-03-25T10:53:28;100265.0;;;12.4;75.75
36834;BME280;48003;52.084;5.224;2023-03-25T10:55:13;100259.0;;;12.6;75.47
36834;BME280;48003;52.084;5.224;2023-03-25T10:57:01;100296.0;;;12.38;74.33
36834;BME280;48003;52.084;5.224;2023-03-25T10:58:41;100282.0;;;12.24;74.74
36834;BME280;48003;52.084;5.224;2023-03-25T11:01:58;100288.0;;;12.39;73.17
36834;BME280;48003;52.084;5.224;2023-03-25T11:03:35;100282.0;;;12.38;71.99
36834;BME280;48003;52.084;5.224;2023-03-25T11:05:16;100282.0;;;12.35;72.55
36834;BME280;48003;52.084;5.224;2023-03-25T11:06:56;100278.0;;;12.49;73.45
36834;BME280;48003;52.084;5.224;2023-03-25T11:10:15;100291.0;;;12.33;73.37